Time;durP1;ratioP1;P1;durP2;ratioP2;P2;SDS_P1;SDS_P2;PMS_P1;PMS_P2;Temp;Humidity;BMP_temperature;BMP_pressure;BME280_temperature;BME280_humidity;BME280_pressure;Samples;Min_cycle;Max_cycle;Signal;HPM_P1;HPM_P2
2021/11/28 00:01:59;;;;;;;80.68;40.25;;;6.80;99.90;;;;;;5101093;28;20020;-75
2021/11/28 00:04:24;;;;;;;73.70;37.15;;;6.70;99.90;;;;;;5095135;28;20040;-75
2021/11/28 00:07:06;;;;;;;76.00;39.65;;;6.70;99.90;;;;;;5094014;28;20081;-75
2021/11/28 00:14:45;;;;;;;151.93;55.90;;;6.60;99.90;;;;;;5094889;28;20060;-75
2021/11/28 00:17:12;;;;;;;170.07;57.08;;;6.50;99.90;;;;;;5094903;28;20078;-75
2021/11/28 00:19:39;;;;;;;170.93;57.45;;;6.50;99.90;;;;;;5094781;28;20059;-75
2021/11/28 00:22:05;;;;;;;352.52;90.43;;;6.50;99.90;;;;;;5094506;28;20024;-75
2021/11/28 00:24:33;;;;;;;317.25;82.55;;;6.50;99.90;;;;;;5094494;28;20374;-75
2021/11/28 00:26:59;;;;;;;279.27;78.18;;;6.50;99.90;;;;;;5094404;28;20164;-75
2021/11/28 00:29:25;;;;;;;226.98;69.32;;;6.50;99.90;;;;;;5094472;28;20085;-75
2021/11/28 00:31:50;;;;;;;171.40;59.92;;;6.50;99.90;;;;;;5094849;28;20032;-75
2021/11/28 00:34:16;;;;;;;194.35;67.07;;;6.50;99.90;;;;;;5094546;28;20031;-74
2021/11/28 00:36:42;;;;;;;190.57;65.90;;;6.50;99.90;;;;;;5093859;28;20024;-76
2021/11/28 00:39:08;;;;;;;162.13;64.72;;;6.50;99.90;;;;;;5094599;28;20024;-76
2021/11/28 00:41:33;;;;;;;149.88;63.42;;;6.50;99.90;;;;;;5093511;28;20063;-77
2021/11/28 00:43:59;;;;;;;124.18;57.50;;;6.40;99.90;;;;;;5094473;28;20031;-76
2021/11/28 00:46:25;;;;;;;121.10;54.75;;;6.40;99.90;;;;;;5094701;28;20038;-75
2021/11/28 00:48:51;;;;;;;109.57;54.25;;;6.40;99.90;;;;;;5094460;28;20035;-75
2021/11/28 00:53:43;;;;;;;91.25;52.03;;;6.40;99.90;;;;;;5104196;28;20028;-76
2021/11/28 00:56:09;;;;;;;84.95;49.47;;;6.40;99.90;;;;;;5107038;28;20031;-75
2021/11/28 00:58:35;;;;;;;80.32;46.22;;;6.30;99.90;;;;;;5097313;28;20032;-76
2021/11/28 01:01:00;;;;;;;77.68;45.28;;;6.30;99.90;;;;;;5094661;28;20408;-76
2021/11/28 01:03:26;;;;;;;70.70;42.53;;;6.30;99.90;;;;;;5094015;28;20036;-76
2021/11/28 01:05:53;;;;;;;76.65;44.22;;;6.30;99.90;;;;;;5094048;28;20059;-76
2021/11/28 01:08:20;;;;;;;72.07;44.30;;;6.20;99.90;;;;;;5092730;28;20035;-76
2021/11/28 01:10:47;;;;;;;72.22;46.55;;;6.20;99.90;;;;;;5094040;28;20039;-76
2021/11/28 01:13:13;;;;;;;74.35;47.33;;;6.20;99.90;;;;;;5092555;28;20046;-77
2021/11/28 01:15:39;;;;;;;73.68;50.97;;;6.20;99.90;;;;;;5092732;28;20035;-77
2021/11/28 01:18:05;;;;;;;74.93;51.92;;;6.20;99.90;;;;;;5092368;28;20056;-77
2021/11/28 01:20:31;;;;;;;65.72;47.08;;;6.20;99.90;;;;;;5091463;28;20035;-76
2021/11/28 01:22:57;;;;;;;79.75;52.72;;;6.20;99.90;;;;;;5093484;28;20035;-76
2021/11/28 01:25:23;;;;;;;65.53;49.60;;;6.20;99.90;;;;;;5093962;28;20024;-76
2021/11/28 01:27:49;;;;;;;64.32;48.00;;;6.10;99.90;;;;;;5094052;28;20032;-76
2021/11/28 01:30:15;;;;;;;83.70;58.45;;;6.10;99.90;;;;;;5093714;28;20370;-76
2021/11/28 01:32:42;;;;;;;73.18;53.90;;;6.10;99.90;;;;;;5093903;28;20028;-76
2021/11/28 01:35:11;;;;;;;75.18;52.92;;;6.10;99.90;;;;;;5094086;28;20051;-76
2021/11/28 01:37:38;;;;;;;83.05;57.17;;;6.10;99.90;;;;;;5093643;28;20021;-77
2021/11/28 01:40:06;;;;;;;68.03;50.60;;;6.00;99.90;;;;;;5093712;28;20032;-76
2021/11/28 01:42:36;;;;;;;70.57;53.75;;;6.00;99.90;;;;;;5093709;28;20077;-76
2021/11/28 01:45:04;;;;;;;86.13;58.85;;;6.00;99.90;;;;;;5092310;28;20052;-76
2021/11/28 01:47:31;;;;;;;76.70;55.67;;;5.90;99.90;;;;;;5097671;28;20382;-75
2021/11/28 01:49:58;;;;;;;81.00;56.40;;;5.90;99.90;;;;;;5107374;28;20414;-76
2021/11/28 01:52:24;;;;;;;91.40;61.03;;;5.80;99.90;;;;;;5099949;28;20111;-76
2021/11/28 01:54:51;;;;;;;87.63;57.95;;;5.80;99.90;;;;;;5096294;28;20534;-76
2021/11/28 01:57:16;;;;;;;67.60;49.88;;;5.80;99.90;;;;;;5097529;28;20028;-76
2021/11/28 01:59:42;;;;;;;77.68;54.22;;;5.70;99.90;;;;;;5097643;28;20461;-75
2021/11/28 02:02:08;;;;;;;162.70;79.63;;;5.70;99.90;;;;;;5096036;28;20047;-76
2021/11/28 02:04:35;;;;;;;70.53;50.15;;;5.70;99.90;;;;;;5097574;28;20046;-76
2021/11/28 02:07:01;;;;;;;86.85;60.80;;;5.50;99.90;;;;;;5097341;28;20401;-75
2021/11/28 02:09:27;;;;;;;82.07;58.03;;;5.50;99.90;;;;;;5097129;28;20031;-75
2021/11/28 02:11:53;;;;;;;84.07;57.00;;;5.40;99.90;;;;;;5096120;28;20024;-75
2021/11/28 02:14:19;;;;;;;91.15;61.05;;;5.40;99.90;;;;;;5095940;28;20462;-75
2021/11/28 02:16:46;;;;;;;80.88;59.15;;;5.50;99.90;;;;;;5097068;28;20031;-76
2021/11/28 02:19:12;;;;;;;93.65;65.28;;;5.50;99.90;;;;;;5097240;28;20052;-76
2021/11/28 02:21:38;;;;;;;95.60;68.68;;;5.50;99.90;;;;;;5097284;28;20373;-76
2021/11/28 02:24:04;;;;;;;85.43;64.70;;;5.60;99.90;;;;;;5096461;28;20097;-77
2021/11/28 02:26:30;;;;;;;119.47;79.38;;;5.60;99.90;;;;;;5096863;28;20101;-74
2021/11/28 02:28:57;;;;;;;107.00;74.85;;;5.60;99.90;;;;;;5095802;28;20039;-76
2021/11/28 02:31:23;;;;;;;95.93;67.00;;;5.60;99.90;;;;;;5095458;28;20028;-76
2021/11/28 02:33:49;;;;;;;76.03;57.78;;;5.60;99.90;;;;;;5095579;28;20423;-76
2021/11/28 02:36:15;;;;;;;87.72;64.93;;;5.50;99.90;;;;;;5095473;28;20024;-76
2021/11/28 02:38:42;;;;;;;100.82;74.72;;;5.60;99.90;;;;;;5096742;28;20098;-76
2021/11/28 02:41:07;;;;;;;90.75;67.57;;;5.60;99.90;;;;;;5096698;28;20024;-76
2021/11/28 02:43:33;;;;;;;78.38;58.72;;;5.50;99.90;;;;;;5102379;28;20503;-76
2021/11/28 02:46:02;;;;;;;84.82;62.30;;;5.50;99.90;;;;;;5099943;28;20031;-76
2021/11/28 02:48:28;;;;;;;94.88;68.75;;;5.50;99.90;;;;;;5099438;28;20020;-77
2021/11/28 02:50:59;;;;;;;110.28;69.72;;;5.50;99.90;;;;;;5096404;28;20024;-75
2021/11/28 02:53:25;;;;;;;120.97;74.47;;;5.50;99.90;;;;;;5096578;28;20481;-77
2021/11/28 02:55:55;;;;;;;93.88;64.13;;;5.50;99.90;;;;;;5096491;28;20057;-77
2021/11/28 02:58:23;;;;;;;525.45;127.85;;;5.50;99.90;;;;;;5096472;28;20024;-76
2021/11/28 03:00:53;;;;;;;312.15;103.75;;;5.30;99.90;;;;;;5095721;28;20077;-77
2021/11/28 03:03:19;;;;;;;281.35;100.15;;;5.10;99.90;;;;;;5096403;28;20046;-77
2021/11/28 03:05:45;;;;;;;99.70;66.40;;;4.90;99.90;;;;;;5096060;28;20024;-76
2021/11/28 03:08:17;;;;;;;73.20;55.63;;;4.90;99.90;;;;;;5095914;28;20112;-76
2021/11/28 03:10:54;;;;;;;83.28;58.50;;;4.80;99.90;;;;;;5094792;28;20028;-77
2021/11/28 03:13:27;;;;;;;102.32;68.78;;;4.80;99.90;;;;;;5096130;28;20032;-76
2021/11/28 03:15:59;;;;;;;105.13;66.22;;;4.70;99.90;;;;;;5094722;28;20020;-75
2021/11/28 03:18:27;;;;;;;187.25;68.15;;;4.60;99.90;;;;;;5095900;28;20063;-76
2021/11/28 03:20:56;;;;;;;235.75;84.82;;;4.50;99.90;;;;;;5095990;28;20016;-76
2021/11/28 03:23:26;;;;;;;265.30;98.80;;;4.30;99.90;;;;;;5094542;28;20462;-77
2021/11/28 03:26:03;;;;;;;198.40;97.70;;;4.20;99.90;;;;;;5094542;28;20024;-75
2021/11/28 03:28:29;;;;;;;212.07;87.53;;;4.10;99.90;;;;;;5096468;28;20032;-75
2021/11/28 03:30:54;;;;;;;180.45;84.57;;;4.00;99.90;;;;;;5094897;28;20028;-83
2021/11/28 03:33:20;;;;;;;337.55;133.35;;;4.10;99.90;;;;;;5095112;28;20024;-82
2021/11/28 03:35:46;;;;;;;369.15;154.02;;;4.10;99.90;;;;;;5095902;28;20359;-82
2021/11/28 03:38:12;;;;;;;290.48;95.65;;;4.10;99.90;;;;;;5098645;28;20028;-83
2021/11/28 03:40:38;;;;;;;212.23;51.80;;;4.00;99.90;;;;;;5103287;28;20095;-83
2021/11/28 03:43:05;;;;;;;192.93;33.72;;;4.10;99.90;;;;;;5097355;28;20027;-82
2021/11/28 03:45:31;;;;;;;176.50;37.08;;;4.20;99.90;;;;;;5094495;28;20059;-82
2021/11/28 03:47:57;;;;;;;213.25;56.38;;;4.20;99.90;;;;;;5094562;28;20355;-81
2021/11/28 03:50:23;;;;;;;147.23;38.10;;;4.20;99.90;;;;;;5094312;28;20077;-82
2021/11/28 03:52:48;;;;;;;195.02;38.63;;;4.20;99.90;;;;;;5095052;28;20063;-83
2021/11/28 03:55:16;;;;;;;161.73;36.88;;;4.20;99.90;;;;;;5094675;28;20024;-83
2021/11/28 03:57:42;;;;;;;127.05;36.15;;;4.30;99.90;;;;;;5093957;28;20031;-81
2021/11/28 04:00:12;;;;;;;103.82;27.20;;;4.30;99.90;;;;;;5093896;28;20023;-82
2021/11/28 04:02:38;;;;;;;129.60;27.13;;;4.30;99.90;;;;;;5093883;28;20032;-82
2021/11/28 04:05:04;;;;;;;183.30;29.92;;;4.40;99.90;;;;;;5093819;28;20028;-82
2021/11/28 04:07:31;;;;;;;151.35;30.45;;;4.40;99.90;;;;;;5095316;28;20036;-81
2021/11/28 04:09:57;;;;;;;159.82;29.23;;;4.40;99.90;;;;;;5093820;28;20030;-82
2021/11/28 04:12:23;;;;;;;119.95;25.95;;;4.40;99.90;;;;;;5094390;28;20107;-82
2021/11/28 04:14:49;;;;;;;153.23;36.50;;;4.40;99.90;;;;;;5095289;28;20340;-82
2021/11/28 04:17:14;;;;;;;232.88;41.63;;;4.40;99.90;;;;;;5095061;28;20035;-82
2021/11/28 04:19:40;;;;;;;407.98;94.40;;;4.40;99.90;;;;;;5093328;28;20055;-83
2021/11/28 04:22:06;;;;;;;385.23;81.80;;;4.30;99.90;;;;;;5094862;28;20030;-82
2021/11/28 04:24:32;;;;;;;269.02;47.60;;;4.30;99.90;;;;;;5094784;28;20028;-83
2021/11/28 04:26:58;;;;;;;240.18;50.13;;;4.30;99.90;;;;;;5093423;28;20070;-83
2021/11/28 04:29:25;;;;;;;278.55;41.67;;;4.30;99.90;;;;;;5093229;28;20032;-83
2021/11/28 04:31:51;;;;;;;551.95;77.50;;;4.20;99.90;;;;;;5093515;28;20078;-83
2021/11/28 04:34:17;;;;;;;428.02;74.18;;;4.20;99.90;;;;;;5102459;28;20122;-83
2021/11/28 04:36:43;;;;;;;523.85;98.53;;;4.10;99.90;;;;;;5100160;28;20373;-82
2021/11/28 04:39:10;;;;;;;902.53;159.13;;;4.10;99.90;;;;;;5093520;28;20093;-82
2021/11/28 04:41:35;;;;;;;1494.97;220.48;;;4.00;99.90;;;;;;5093452;28;20119;-82
2021/11/28 04:44:02;;;;;;;862.70;169.23;;;4.00;99.90;;;;;;5093363;28;20441;-83
2021/11/28 04:46:27;;;;;;;592.20;125.57;;;3.90;99.90;;;;;;5094377;28;20043;-83
2021/11/28 04:48:53;;;;;;;894.38;156.48;;;3.90;99.90;;;;;;5093017;28;20066;-82
2021/11/28 04:51:19;;;;;;;623.25;120.55;;;3.90;99.90;;;;;;5093237;28;20055;-82
2021/11/28 04:53:45;;;;;;;1112.45;156.35;;;3.80;99.90;;;;;;5093070;28;20442;-83
2021/11/28 04:56:10;;;;;;;545.72;84.35;;;3.80;99.90;;;;;;5093014;28;20030;-82
2021/11/28 04:58:36;;;;;;;506.48;81.07;;;3.80;99.90;;;;;;5092466;28;20036;-82
2021/11/28 05:01:02;;;;;;;240.95;49.70;;;3.80;99.90;;;;;;5092854;28;20040;-82
2021/11/28 05:03:28;;;;;;;127.50;31.88;;;3.90;99.90;;;;;;5092688;28;20513;-81
2021/11/28 05:05:53;;;;;;;226.85;50.30;;;3.80;99.90;;;;;;5094194;28;20081;-82
2021/11/28 05:08:19;;;;;;;161.98;40.58;;;3.80;99.90;;;;;;5094442;28;20043;-83
2021/11/28 05:10:45;;;;;;;162.68;34.50;;;3.80;99.90;;;;;;5094339;28;20074;-83
2021/11/28 05:13:12;;;;;;;167.52;38.00;;;3.70;99.90;;;;;;5094035;28;20028;-83
2021/11/28 05:15:37;;;;;;;141.48;32.50;;;3.70;99.90;;;;;;5094445;28;20024;-82
2021/11/28 05:18:03;;;;;;;82.03;21.33;;;3.60;99.90;;;;;;5092591;28;20040;-83
2021/11/28 05:20:29;;;;;;;125.20;30.42;;;3.50;99.90;;;;;;5094309;28;20121;-82
2021/11/28 05:22:55;;;;;;;130.48;24.30;;;3.50;99.90;;;;;;5099440;28;20028;-82
2021/11/28 05:25:21;;;;;;;159.25;25.58;;;3.50;99.90;;;;;;5105170;28;20110;-81
2021/11/28 05:27:48;;;;;;;191.68;26.83;;;3.40;99.90;;;;;;5108485;28;20060;-82
2021/11/28 05:30:15;;;;;;;172.23;27.00;;;3.40;99.90;;;;;;5109279;28;20035;-81
2021/11/28 05:32:41;;;;;;;116.25;22.67;;;3.30;99.90;;;;;;5103738;28;20039;-81
2021/11/28 05:35:07;;;;;;;259.02;37.70;;;3.30;99.90;;;;;;5099786;28;20028;-81
2021/11/28 05:37:32;;;;;;;301.85;43.85;;;3.30;99.90;;;;;;5099785;28;20024;-82
2021/11/28 05:40:00;;;;;;;294.15;41.75;;;3.20;99.90;;;;;;5099508;28;20044;-83
2021/11/28 05:42:26;;;;;;;314.55;42.75;;;3.10;99.90;;;;;;5100625;28;20020;-81
2021/11/28 05:44:52;;;;;;;441.70;73.22;;;3.10;99.90;;;;;;5100644;28;20073;-82
2021/11/28 05:47:18;;;;;;;290.13;46.25;;;3.10;99.90;;;;;;5100341;28;20126;-82
2021/11/28 05:49:44;;;;;;;282.67;42.15;;;3.20;99.90;;;;;;5099128;28;20044;-83
2021/11/28 05:52:10;;;;;;;326.50;46.80;;;3.10;99.90;;;;;;5100325;28;20108;-82
2021/11/28 05:54:35;;;;;;;248.95;45.15;;;3.20;99.90;;;;;;5099179;28;20462;-82
2021/11/28 05:57:01;;;;;;;183.80;31.35;;;3.20;99.90;;;;;;5100208;28;20028;-82
2021/11/28 05:59:27;;;;;;;211.43;33.53;;;3.20;99.90;;;;;;5099004;28;20036;-83
2021/11/28 06:01:54;;;;;;;190.07;33.78;;;3.20;99.90;;;;;;5100999;28;20363;-82
2021/11/28 06:04:20;;;;;;;145.25;28.33;;;3.20;99.90;;;;;;5099567;28;20409;-82
2021/11/28 06:06:46;;;;;;;172.40;30.42;;;3.20;99.90;;;;;;5100587;28;20031;-83
2021/11/28 06:09:12;;;;;;;157.88;34.10;;;3.20;99.90;;;;;;5100178;28;20028;-83
2021/11/28 06:11:38;;;;;;;158.50;30.42;;;3.30;99.90;;;;;;5100400;28;20020;-83
2021/11/28 06:14:04;;;;;;;169.00;30.33;;;3.30;99.90;;;;;;5100320;28;20338;-82
2021/11/28 06:16:31;;;;;;;210.98;37.72;;;3.40;99.90;;;;;;5099587;28;20120;-83
2021/11/28 06:18:57;;;;;;;183.50;27.42;;;3.50;99.90;;;;;;5098932;28;20105;-82
2021/11/28 06:21:23;;;;;;;193.57;29.85;;;3.60;99.90;;;;;;5099353;28;20020;-82
2021/11/28 06:23:49;;;;;;;179.35;28.77;;;3.70;99.90;;;;;;5108966;28;20035;-82
2021/11/28 06:26:15;;;;;;;157.73;29.67;;;3.80;99.90;;;;;;5106093;28;20454;-83
2021/11/28 06:28:41;;;;;;;196.32;23.17;;;3.90;99.90;;;;;;5100735;28;20059;-82
2021/11/28 06:31:07;;;;;;;173.80;23.30;;;4.00;99.90;;;;;;5100202;28;20424;-83
2021/11/28 06:33:33;;;;;;;151.27;21.00;;;4.00;99.90;;;;;;5100727;28;20023;-83
2021/11/28 06:35:59;;;;;;;202.57;23.83;;;4.10;99.90;;;;;;5096447;28;20032;-84
2021/11/28 06:38:25;;;;;;;217.95;20.23;;;4.10;99.90;;;;;;5097155;28;20044;-83
2021/11/28 06:40:51;;;;;;;220.20;23.05;;;4.10;99.90;;;;;;5095831;28;20024;-83
2021/11/28 06:43:17;;;;;;;158.65;22.48;;;4.30;99.90;;;;;;5097098;28;20036;-83
2021/11/28 06:45:43;;;;;;;232.80;27.70;;;4.40;99.90;;;;;;5096952;28;20082;-84
2021/11/28 06:48:09;;;;;;;225.70;23.02;;;4.40;99.90;;;;;;5096541;28;20028;-82
2021/11/28 06:50:35;;;;;;;187.50;22.60;;;4.50;99.90;;;;;;5095392;28;20032;-83
2021/11/28 06:53:03;;;;;;;195.45;22.85;;;4.60;99.90;;;;;;5096653;28;20089;-83
2021/11/28 06:55:30;;;;;;;236.75;27.92;;;4.60;99.90;;;;;;5095287;28;20028;-82
2021/11/28 06:57:55;;;;;;;263.30;32.78;;;4.70;99.90;;;;;;5095090;28;20085;-81
2021/11/28 07:00:22;;;;;;;188.27;19.35;;;4.70;99.90;;;;;;5094988;28;20032;-83
2021/11/28 07:02:48;;;;;;;130.77;19.60;;;4.80;99.90;;;;;;5094434;28;20039;-81
2021/11/28 07:05:13;;;;;;;127.65;18.42;;;5.00;99.90;;;;;;5094691;28;20420;-81
2021/11/28 07:07:39;;;;;;;234.70;30.75;;;5.10;99.90;;;;;;5096107;28;20025;-82
2021/11/28 07:10:06;;;;;;;100.75;15.32;;;5.20;99.90;;;;;;5096172;28;20032;-82
2021/11/28 07:12:32;;;;;;;121.30;16.67;;;5.20;99.90;;;;;;5096209;28;20047;-82
2021/11/28 07:14:58;;;;;;;75.50;17.38;;;5.30;99.90;;;;;;5096310;28;20071;-82
2021/11/28 07:17:23;;;;;;;109.70;16.25;;;5.40;99.90;;;;;;5101660;28;20024;-82
2021/11/28 07:19:49;;;;;;;141.07;20.25;;;5.30;99.90;;;;;;5104819;28;20044;-82
2021/11/28 07:22:15;;;;;;;151.63;22.25;;;5.40;99.90;;;;;;5097936;28;20448;-83
2021/11/28 07:24:40;;;;;;;149.93;22.83;;;5.30;99.90;;;;;;5095019;28;20028;-84
2021/11/28 07:27:06;;;;;;;64.13;14.73;;;5.30;99.90;;;;;;5094464;28;20055;-83
2021/11/28 07:29:32;;;;;;;53.28;14.07;;;5.40;99.90;;;;;;5095182;28;20036;-83
2021/11/28 07:31:58;;;;;;;92.63;19.30;;;5.60;99.90;;;;;;5095136;28;20020;-81
2021/11/28 07:34:24;;;;;;;241.23;43.95;;;5.70;99.90;;;;;;5094832;28;20051;-82
2021/11/28 07:36:49;;;;;;;176.00;28.55;;;5.70;99.90;;;;;;5094609;28;20461;-82
2021/11/28 07:39:15;;;;;;;100.57;22.55;;;5.70;99.90;;;;;;5094486;28;20036;-83
2021/11/28 07:41:41;;;;;;;108.70;26.02;;;5.60;99.90;;;;;;5095669;28;20118;-83
2021/11/28 07:44:07;;;;;;;102.00;19.83;;;5.60;99.90;;;;;;5094352;28;20024;-82
2021/11/28 07:46:33;;;;;;;104.25;17.25;;;5.50;99.90;;;;;;5094215;28;20028;-82
2021/11/28 07:48:59;;;;;;;177.60;33.53;;;5.50;99.90;;;;;;5094152;28;20070;-82
2021/11/28 07:51:25;;;;;;;109.22;19.75;;;5.40;99.90;;;;;;5094011;28;20106;-82
2021/11/28 07:53:51;;;;;;;106.65;23.08;;;5.30;99.90;;;;;;5095780;28;20024;-81
2021/11/28 07:56:19;;;;;;;93.38;19.60;;;5.30;99.90;;;;;;5094221;28;20024;-82
2021/11/28 07:58:45;;;;;;;152.48;27.13;;;5.20;99.90;;;;;;5093956;28;20144;-82
2021/11/28 08:01:11;;;;;;;85.80;21.20;;;5.20;99.90;;;;;;5095176;28;20024;-82
2021/11/28 08:03:37;;;;;;;159.45;28.60;;;5.20;99.90;;;;;;5095070;28;20024;-82
2021/11/28 08:06:03;;;;;;;125.50;24.23;;;5.20;99.90;;;;;;5093816;28;20058;-81
2021/11/28 08:08:32;;;;;;;107.70;31.33;;;5.20;99.90;;;;;;5093961;28;20028;-82
2021/11/28 08:10:59;;;;;;;102.15;25.25;;;5.20;99.90;;;;;;5095048;28;20017;-81
2021/11/28 08:13:25;;;;;;;128.95;25.35;;;5.30;99.90;;;;;;5093908;28;20051;-83
2021/11/28 08:15:50;;;;;;;125.32;23.80;;;5.30;99.90;;;;;;5103960;28;20024;-82
2021/11/28 08:18:17;;;;;;;289.70;49.08;;;5.40;99.90;;;;;;5099634;28;20097;-83
2021/11/28 08:20:42;;;;;;;131.88;18.98;;;5.40;99.90;;;;;;5094951;28;20466;-82
2021/11/28 08:23:08;;;;;;;123.53;22.65;;;5.40;99.90;;;;;;5094630;28;20099;-81
2021/11/28 08:25:34;;;;;;;89.35;17.77;;;5.40;99.90;;;;;;5094715;28;20028;-82
2021/11/28 08:28:01;;;;;;;83.95;19.60;;;5.50;99.90;;;;;;5093954;28;20039;-82
2021/11/28 08:30:27;;;;;;;98.18;22.70;;;5.50;99.90;;;;;;5094828;28;20074;-83
2021/11/28 08:32:53;;;;;;;128.57;24.67;;;5.70;99.90;;;;;;5093328;28;20028;-82
2021/11/28 08:35:19;;;;;;;128.45;26.55;;;5.80;99.90;;;;;;5094681;28;20035;-83
2021/11/28 08:37:46;;;;;;;186.13;33.28;;;5.90;99.90;;;;;;5094607;28;20051;-84
2021/11/28 08:40:16;;;;;;;378.52;64.53;;;6.00;99.90;;;;;;5093290;28;20028;-82
2021/11/28 08:42:41;;;;;;;325.73;61.35;;;6.00;99.90;;;;;;5093849;28;20520;-82
2021/11/28 08:45:09;;;;;;;271.63;42.75;;;6.10;99.90;;;;;;5093414;28;20059;-83
2021/11/28 08:47:35;;;;;;;321.70;64.22;;;6.10;99.90;;;;;;5093041;28;20422;-84
2021/11/28 08:50:03;;;;;;;135.23;41.53;;;6.10;99.90;;;;;;5092765;28;20067;-81
2021/11/28 08:52:28;;;;;;;218.82;38.83;;;6.20;99.90;;;;;;5094123;28;20058;-80
2021/11/28 08:54:54;;;;;;;332.77;61.35;;;6.20;99.90;;;;;;5093928;28;20028;-82
2021/11/28 08:57:20;;;;;;;228.45;40.92;;;6.20;99.90;;;;;;5094180;28;20102;-82
2021/11/28 08:59:46;;;;;;;222.65;36.97;;;6.30;99.90;;;;;;5094092;28;20106;-81
2021/11/28 09:02:12;;;;;;;129.65;28.33;;;6.40;99.90;;;;;;5094969;28;20077;-82
2021/11/28 09:04:38;;;;;;;92.07;23.75;;;6.40;99.90;;;;;;5094966;28;20040;-83
2021/11/28 09:07:04;;;;;;;245.45;49.65;;;6.50;99.90;;;;;;5101127;28;20020;-80
2021/11/28 09:09:31;;;;;;;114.32;28.23;;;6.60;99.90;;;;;;5100381;28;20032;-80
2021/11/28 09:11:57;;;;;;;102.00;25.30;;;6.70;99.90;;;;;;5095560;28;20162;-81
2021/11/28 09:14:23;;;;;;;174.32;31.60;;;6.70;99.90;;;;;;5093054;28;20141;-81
2021/11/28 09:16:49;;;;;;;232.85;42.72;;;6.80;99.90;;;;;;5092834;28;20051;-81
2021/11/28 09:20:00;;;;;;;127.90;30.63;;;6.80;99.90;;;;;;5093546;28;20070;-82
2021/11/28 09:22:06;;;;;;;96.20;28.63;;;6.80;99.90;;;;;;5090571;28;20038;-81
2021/11/28 09:24:37;;;;;;;82.78;25.48;;;7.00;99.90;;;;;;5094073;28;20028;-82
2021/11/28 09:27:10;;;;;;;100.20;29.30;;;7.10;99.90;;;;;;5094261;28;20112;-81
2021/11/28 09:29:38;;;;;;;93.88;29.23;;;7.20;99.90;;;;;;5092609;28;20428;-81
2021/11/28 09:32:05;;;;;;;67.68;20.45;;;7.20;99.90;;;;;;5093577;28;20020;-81
2021/11/28 09:34:31;;;;;;;123.05;29.42;;;7.30;99.90;;;;;;5092698;28;20074;-82
2021/11/28 09:36:57;;;;;;;48.20;21.55;;;7.40;99.90;;;;;;5094722;28;20032;-82
2021/11/28 09:39:23;;;;;;;194.00;42.30;;;7.50;99.90;;;;;;5092411;28;20428;-83
2021/11/28 09:42:02;;;;;;;178.38;30.90;;;7.50;99.90;;;;;;5094138;28;20050;-82
2021/11/28 09:44:31;;;;;;;144.70;31.30;;;7.60;99.90;;;;;;5093803;28;20347;-83
2021/11/28 09:46:57;;;;;;;70.30;21.02;;;7.60;99.90;;;;;;5092534;28;20024;-83
2021/11/28 09:49:29;;;;;;;55.00;19.67;;;7.70;99.90;;;;;;5093729;28;20024;-81
2021/11/28 09:51:57;;;;;;;35.08;18.80;;;7.80;99.90;;;;;;5092711;28;20028;-82
2021/11/28 09:54:23;;;;;;;44.03;20.17;;;7.90;99.90;;;;;;5092488;28;20028;-82
2021/11/28 09:56:50;;;;;;;90.28;28.83;;;8.00;99.90;;;;;;5093769;28;20028;-81
2021/11/28 09:59:17;;;;;;;51.17;22.17;;;8.00;99.90;;;;;;5093921;28;20036;-80
2021/11/28 10:01:43;;;;;;;52.55;25.70;;;8.10;99.90;;;;;;5099616;28;20062;-81
2021/11/28 10:04:09;;;;;;;64.93;28.95;;;8.20;99.90;;;;;;5099094;28;20032;-80
2021/11/28 10:06:35;;;;;;;61.47;28.80;;;8.20;99.90;;;;;;5094395;28;20435;-81
2021/11/28 10:09:06;;;;;;;96.13;35.97;;;8.30;99.90;;;;;;5093552;28;20035;-81
2021/11/28 10:11:59;;;;;;;141.07;45.13;;;8.40;99.90;;;;;;5097538;28;20089;-81
2021/11/28 10:14:24;;;;;;;69.97;37.00;;;8.50;99.90;;;;;;5096294;28;20085;-83
2021/11/28 10:16:50;;;;;;;85.18;42.50;;;8.60;99.90;;;;;;5098124;28;20028;-82
2021/11/28 10:19:16;;;;;;;87.30;43.58;;;8.70;99.90;;;;;;5097434;28;20052;-81
2021/11/28 10:21:43;;;;;;;97.60;47.88;;;8.70;99.90;;;;;;5098752;28;20405;-83
2021/11/28 10:24:12;;;;;;;164.70;80.50;;;8.80;99.90;;;;;;5097126;28;20118;-78
2021/11/28 10:26:53;;;;;;;113.45;66.80;;;8.90;99.90;;;;;;5096861;28;20024;-80
2021/11/28 10:29:22;;;;;;;73.32;48.25;;;8.90;99.90;;;;;;5096241;28;20081;-81
2021/11/28 10:31:51;;;;;;;57.58;38.80;;;8.90;99.90;;;;;;5098468;28;20060;-81
2021/11/28 10:34:20;;;;;;;59.10;40.88;;;8.90;99.90;;;;;;5097435;28;20357;-79
2021/11/28 10:36:48;;;;;;;69.82;46.75;;;8.90;99.90;;;;;;5095465;28;20028;-81
2021/11/28 10:39:20;;;;;;;66.43;45.42;;;8.90;99.90;;;;;;5095486;28;20062;-81
2021/11/28 10:41:49;;;;;;;70.10;48.80;;;8.90;99.90;;;;;;5097052;28;20121;-82
2021/11/28 10:44:16;;;;;;;49.65;36.42;;;9.00;99.90;;;;;;5096873;28;20046;-81
2021/11/28 10:46:42;;;;;;;45.92;32.70;;;9.00;99.90;;;;;;5095596;28;20031;-82
2021/11/28 10:49:14;;;;;;;46.67;32.72;;;9.00;99.90;;;;;;5096644;28;20118;-80
2021/11/28 10:51:52;;;;;;;40.20;30.67;;;9.00;99.90;;;;;;5096416;28;20024;-81
2021/11/28 10:54:31;;;;;;;37.53;26.90;;;9.00;99.90;;;;;;5097178;28;20028;-81
2021/11/28 10:57:15;;;;;;;39.33;28.65;;;8.90;99.90;;;;;;5105419;28;20043;-80
2021/11/28 10:59:44;;;;;;;43.65;31.45;;;8.90;99.90;;;;;;5101779;28;20028;-81
2021/11/28 11:02:24;;;;;;;44.13;29.45;;;8.90;99.90;;;;;;5100656;28;20035;-81
2021/11/28 11:04:55;;;;;;;42.70;31.75;;;8.90;99.90;;;;;;5097258;28;20096;-80
2021/11/28 11:07:23;;;;;;;34.42;27.63;;;8.80;99.90;;;;;;5095228;28;20025;-82
2021/11/28 11:09:50;;;;;;;33.80;26.42;;;8.90;99.90;;;;;;5096370;28;20110;-81
2021/11/28 11:12:17;;;;;;;30.90;23.02;;;8.90;99.90;;;;;;5095149;28;20024;-82
2021/11/28 11:14:43;;;;;;;30.38;22.75;;;9.00;99.90;;;;;;5095099;28;20032;-81
2021/11/28 11:17:13;;;;;;;35.35;25.08;;;9.10;99.90;;;;;;5096178;28;20043;-81
2021/11/28 11:19:40;;;;;;;34.30;24.27;;;9.20;99.90;;;;;;5096025;28;20440;-81
2021/11/28 11:22:18;;;;;;;31.50;22.20;;;9.20;99.90;;;;;;5096498;28;20020;-80
2021/11/28 11:24:51;;;;;;;30.08;21.10;;;9.20;99.90;;;;;;5095217;28;20032;-80
2021/11/28 11:27:38;;;;;;;31.80;22.70;;;9.20;99.90;;;;;;5096209;28;20111;-80
2021/11/28 11:30:04;;;;;;;29.02;22.30;;;9.30;99.90;;;;;;5095056;28;20039;-81
2021/11/28 11:32:47;;;;;;;34.08;21.60;;;9.50;99.90;;;;;;5096028;28;20028;-81
2021/11/28 11:35:19;;;;;;;31.42;21.20;;;9.70;99.90;;;;;;5096271;28;20032;-80
2021/11/28 11:37:46;;;;;;;32.97;19.75;;;9.80;99.90;;;;;;5095749;28;20111;-79
2021/11/28 11:40:14;;;;;;;29.65;20.85;;;9.80;99.90;;;;;;5094273;28;20032;-80
2021/11/28 11:42:42;;;;;;;34.70;24.25;;;9.70;99.90;;;;;;5094249;28;20377;-81
2021/11/28 11:45:13;;;;;;;46.00;33.58;;;9.70;99.90;;;;;;5095752;28;20470;-81
2021/11/28 11:47:40;;;;;;;51.30;30.13;;;9.50;99.90;;;;;;5095430;28;20081;-81
2021/11/28 11:50:08;;;;;;;58.45;37.40;;;9.50;99.90;;;;;;5096986;28;20043;-81
2021/11/28 11:52:34;;;;;;;61.20;25.25;;;9.40;99.90;;;;;;5104167;28;20028;-81
2021/11/28 11:55:06;;;;;;;53.25;21.42;;;9.20;99.90;;;;;;5101565;28;20024;-82
2021/11/28 11:57:38;;;;;;;49.60;20.35;;;9.00;99.90;;;;;;5081403;28;20373;-81
2021/11/28 12:00:06;;;;;;;49.50;24.67;;;8.90;99.90;;;;;;5099588;28;20036;-81
2021/11/28 12:02:37;;;;;;;50.85;34.25;;;8.80;99.90;;;;;;5100051;28;20028;-78
2021/11/28 12:05:25;;;;;;;58.10;43.55;;;8.80;99.90;;;;;;5094664;28;20024;-79
2021/11/28 12:07:53;;;;;;;41.90;30.75;;;8.70;99.90;;;;;;5096309;28;20028;-78
2021/11/28 12:10:31;;;;;;;37.47;23.85;;;8.60;99.90;;;;;;5095919;28;20082;-77
2021/11/28 12:13:01;;;;;;;77.80;25.98;;;8.50;99.90;;;;;;5096138;28;20374;-80
2021/11/28 12:15:32;;;;;;;77.65;29.15;;;8.40;99.90;;;;;;5098104;28;20424;-80
2021/11/28 12:17:59;;;;;;;57.28;29.58;;;8.40;99.90;;;;;;5098841;28;20139;-81
2021/11/28 12:20:43;;;;;;;57.80;33.80;;;8.30;99.90;;;;;;5095092;28;20032;-79
2021/11/28 12:23:10;;;;;;;46.55;27.13;;;8.20;99.90;;;;;;5093903;28;20035;-82
2021/11/28 12:25:41;;;;;;;30.15;22.88;;;8.20;99.90;;;;;;5095528;28;20026;-81
2021/11/28 12:28:31;;;;;;;35.85;27.10;;;8.20;99.90;;;;;;5093985;28;20024;-80
2021/11/28 12:31:06;;;;;;;42.40;32.83;;;8.20;99.90;;;;;;5095037;28;20020;-80
2021/11/28 12:33:53;;;;;;;57.75;41.65;;;8.10;99.90;;;;;;5093777;28;20485;-80
2021/11/28 12:36:40;;;;;;;73.00;54.42;;;8.00;99.90;;;;;;5094860;28;20109;-79
2021/11/28 12:39:06;;;;;;;63.35;49.30;;;8.00;99.90;;;;;;5094367;28;20028;-81
2021/11/28 12:41:44;;;;;;;62.05;45.97;;;8.00;99.90;;;;;;5094809;28;20046;-78